createdAt,value
2023-01-13T00:00:05.670Z,100891.34
2023-01-13T00:03:07.582Z,100887.25
2023-01-13T00:06:13.848Z,100885.44
2023-01-13T00:09:15.763Z,100885.13
2023-01-13T00:12:17.625Z,100888.88
2023-01-13T00:15:19.400Z,100888.13
2023-01-13T00:18:21.200Z,100880.19
2023-01-13T00:21:25.069Z,100875.75
2023-01-13T00:24:27.278Z,100875.03
2023-01-13T00:27:29.427Z,100872.88
2023-01-13T00:30:31.241Z,100874.81
2023-01-13T00:33:35.230Z,100874.69
2023-01-13T00:36:37.165Z,100865.91
2023-01-13T00:39:39.093Z,100873.47
2023-01-13T00:42:59.772Z,100871.09
2023-01-13T00:46:02.697Z,100867.78
2023-01-13T00:49:04.598Z,100872.25
2023-01-13T00:52:06.721Z,100864.91
2023-01-13T00:55:08.953Z,100868.03
2023-01-13T00:58:10.756Z,100872.62
2023-01-13T01:01:17.592Z,100869.16
2023-01-13T01:04:19.453Z,100870.13
2023-01-13T01:07:21.315Z,100871.09
2023-01-13T01:10:23.135Z,100876.41
2023-01-13T01:13:24.926Z,100875.59
2023-01-13T01:16:29.387Z,100871.22
2023-01-13T01:19:32.271Z,100867.87
2023-01-13T01:22:34.082Z,100858.47
2023-01-13T01:25:35.879Z,100861.81
2023-01-13T01:28:37.679Z,100867.22
2023-01-13T01:31:39.522Z,100860.06
2023-01-13T01:34:42.348Z,100848.56
2023-01-13T01:37:44.171Z,100848.41
2023-01-13T01:40:45.956Z,100841.38
2023-01-13T01:44:06.083Z,100837.22
2023-01-13T01:47:14.092Z,100836.75
2023-01-13T01:50:17.392Z,100833.03
2023-01-13T01:53:24.410Z,100833.69
2023-01-13T01:56:26.348Z,100832.16
2023-01-13T01:59:32.232Z,100830.88
2023-01-13T02:02:34.507Z,100817.56
2023-01-13T02:05:36.791Z,100823.13
2023-01-13T02:08:41.436Z,100822.47
2023-01-13T02:12:01.963Z,100810.78
2023-01-13T02:15:11.615Z,100817.38
2023-01-13T02:18:22.431Z,100814.44
2023-01-13T02:22:01.851Z,100813.19
2023-01-13T02:25:35.821Z,100806.81
2023-01-13T02:29:27.071Z,100808.81
2023-01-13T02:33:03.143Z,100805.88
2023-01-13T02:36:11.071Z,100810.22
2023-01-13T02:39:23.784Z,100803.06
2023-01-13T02:42:53.741Z,100807.13
2023-01-13T02:46:20.765Z,100799.06
2023-01-13T02:49:40.466Z,100795.09
2023-01-13T02:52:55.619Z,100794.16
2023-01-13T02:55:59.048Z,100790.88
2023-01-13T02:59:02.131Z,100791.41
2023-01-13T03:02:04.845Z,100793.19
2023-01-13T03:05:07.112Z,100796.03
2023-01-13T03:08:17.936Z,100791.56
2023-01-13T03:11:20.803Z,100786.94
2023-01-13T03:14:31.647Z,100786.19
2023-01-13T03:17:50.000Z,100783.75
2023-01-13T03:21:06.390Z,100786.94
2023-01-13T03:24:20.055Z,100784.12
2023-01-13T03:27:40.622Z,100783.75
2023-01-13T03:30:50.239Z,100778.00
2023-01-13T03:33:59.931Z,100772.63
2023-01-13T03:37:05.850Z,100774.38
2023-01-13T03:40:30.025Z,100771.56
2023-01-13T03:44:00.864Z,100770.69
2023-01-13T03:47:30.742Z,100770.81
2023-01-13T03:50:40.700Z,100772.87
2023-01-13T03:53:57.436Z,100770.69
2023-01-13T03:57:07.412Z,100779.66
2023-01-13T04:00:12.574Z,100772.97
2023-01-13T04:03:22.327Z,100775.28
2023-01-13T04:06:45.505Z,100768.00
2023-01-13T04:09:56.954Z,100768.87
2023-01-13T04:13:13.259Z,100765.66
2023-01-13T04:16:15.504Z,100766.66
2023-01-13T04:19:17.177Z,100768.81
2023-01-13T04:22:18.936Z,100760.62
2023-01-13T04:25:20.598Z,100761.78
2023-01-13T04:28:23.336Z,100761.69
2023-01-13T04:31:25.153Z,100766.03
2023-01-13T04:34:28.406Z,100763.56
2023-01-13T04:37:30.262Z,100767.81
2023-01-13T04:40:33.020Z,100772.56
2023-01-13T04:43:34.755Z,100774.47
2023-01-13T04:46:36.554Z,100778.66
2023-01-13T04:49:38.264Z,100776.22
2023-01-13T04:52:40.036Z,100779.03
2023-01-13T04:55:41.845Z,100778.84
2023-01-13T04:58:43.540Z,100782.59
2023-01-13T05:01:45.435Z,100780.78
2023-01-13T05:04:47.903Z,100787.41
2023-01-13T05:07:49.651Z,100783.75
2023-01-13T05:10:51.440Z,100791.91
2023-01-13T05:14:11.656Z,100793.16
2023-01-13T05:17:20.019Z,100793.44
2023-01-13T05:20:22.861Z,100793.84
2023-01-13T05:24:00.157Z,100796.75
2023-01-13T05:27:01.909Z,100805.12
2023-01-13T05:30:04.357Z,100809.56
2023-01-13T05:33:06.030Z,100812.72
2023-01-13T05:36:08.254Z,100813.84
2023-01-13T05:39:09.969Z,100813.69
2023-01-13T05:42:30.309Z,100817.03
2023-01-13T05:45:32.273Z,100827.19
2023-01-13T05:48:39.813Z,100822.78
2023-01-13T05:51:41.428Z,100828.59
2023-01-13T05:54:49.085Z,100832.22
2023-01-13T05:57:50.796Z,100824.16
2023-01-13T06:00:53.148Z,100827.69
2023-01-13T06:03:54.803Z,100825.09
2023-01-13T06:06:56.526Z,100825.34
2023-01-13T06:09:58.261Z,100828.59
2023-01-13T06:13:01.249Z,100816.03
2023-01-13T06:16:05.112Z,100823.84
2023-01-13T06:19:09.109Z,100836.38
2023-01-13T06:22:21.963Z,100835.78
2023-01-13T06:26:02.249Z,100835.19
2023-01-13T06:29:04.531Z,100844.09
2023-01-13T06:32:11.433Z,100842.50
2023-01-13T06:35:17.344Z,100846.56
2023-01-13T06:38:21.095Z,100850.28
2023-01-13T06:41:43.684Z,100852.28
2023-01-13T06:44:46.369Z,100854.88
2023-01-13T06:47:48.142Z,100855.69
2023-01-13T06:50:49.963Z,100859.34
2023-01-13T06:53:51.707Z,100850.28
2023-01-13T06:56:53.407Z,100846.75
2023-01-13T06:59:55.339Z,100851.50
2023-01-13T07:03:10.321Z,100850.47
2023-01-13T07:06:12.023Z,100853.25
2023-01-13T07:09:13.727Z,100854.41
2023-01-13T07:12:15.474Z,100843.66
2023-01-13T07:15:19.724Z,100848.16
2023-01-13T07:18:21.820Z,100850.06
2023-01-13T07:21:23.668Z,100854.28
2023-01-13T07:24:25.378Z,100853.75
2023-01-13T07:27:27.111Z,100850.31
2023-01-13T07:30:28.789Z,100847.59
2023-01-13T07:33:33.888Z,100849.53
2023-01-13T07:36:36.237Z,100848.62
2023-01-13T07:39:38.018Z,100852.34
2023-01-13T07:42:59.427Z,100855.03
2023-01-13T07:46:04.906Z,100854.78
2023-01-13T07:49:07.551Z,100856.47
2023-01-13T07:52:11.306Z,100856.88
2023-01-13T07:55:14.108Z,100852.53
2023-01-13T07:58:16.928Z,100851.38
2023-01-13T08:01:19.543Z,100865.19
2023-01-13T08:04:21.433Z,100870.44
2023-01-13T08:07:24.239Z,100864.44
2023-01-13T08:10:28.096Z,100865.47
2023-01-13T08:13:30.325Z,100866.22
2023-01-13T08:16:34.522Z,100863.16
2023-01-13T08:19:36.298Z,100866.72
2023-01-13T08:22:38.479Z,100864.06
2023-01-13T08:25:40.472Z,100865.97
2023-01-13T08:28:42.210Z,100865.31
2023-01-13T08:31:43.985Z,100868.13
2023-01-13T08:34:45.673Z,100859.63
2023-01-13T08:37:48.172Z,100857.87
2023-01-13T08:40:51.991Z,100855.94
2023-01-13T08:43:53.778Z,100870.50
2023-01-13T08:46:56.495Z,100873.38
2023-01-13T08:49:58.206Z,100869.34
2023-01-13T08:53:00.444Z,100867.94
2023-01-13T08:56:10.989Z,100862.91
2023-01-13T08:59:14.654Z,100867.00
2023-01-13T09:02:19.425Z,100865.91
2023-01-13T09:05:21.388Z,100868.19
2023-01-13T09:08:23.095Z,100866.75
2023-01-13T09:11:52.879Z,100870.41
2023-01-13T09:14:54.653Z,100869.06
2023-01-13T09:17:56.303Z,100875.44
2023-01-13T09:20:59.133Z,100873.47
2023-01-13T09:24:00.874Z,100861.34
2023-01-13T09:27:02.635Z,100859.88
2023-01-13T09:30:05.426Z,100864.16
2023-01-13T09:33:25.409Z,100865.62
2023-01-13T09:36:27.133Z,100880.41
2023-01-13T09:39:28.988Z,100873.16
2023-01-13T09:43:03.648Z,100877.31
2023-01-13T09:46:47.633Z,100869.59
2023-01-13T09:49:49.529Z,100863.94
2023-01-13T09:52:52.253Z,100861.25
2023-01-13T09:55:55.095Z,100861.81
2023-01-13T09:58:57.766Z,100853.44
2023-01-13T10:02:13.926Z,100855.81
2023-01-13T10:05:43.132Z,100847.03
2023-01-13T10:08:47.166Z,100844.81
2023-01-13T10:12:09.560Z,100833.41
2023-01-13T10:15:19.209Z,100840.78
2023-01-13T10:18:39.777Z,100827.25
2023-01-13T10:22:09.365Z,100839.12
2023-01-13T10:25:31.713Z,100830.25
2023-01-13T10:28:33.399Z,100833.50
2023-01-13T10:31:35.203Z,100835.44
2023-01-13T10:35:05.724Z,100829.50
2023-01-13T10:38:17.113Z,100826.03
2023-01-13T10:41:24.742Z,100824.16
2023-01-13T10:44:27.527Z,100823.72
2023-01-13T10:47:31.256Z,100826.66
2023-01-13T10:50:36.840Z,100821.50
2023-01-13T10:53:47.334Z,100822.91
2023-01-13T10:56:50.269Z,100814.97
2023-01-13T10:59:53.217Z,100812.81
2023-01-13T11:03:13.867Z,100812.38
2023-01-13T11:06:28.794Z,100802.19
2023-01-13T11:09:32.835Z,100806.69
2023-01-13T11:12:44.387Z,100805.66
2023-01-13T11:16:04.196Z,100799.37
2023-01-13T11:19:12.473Z,100801.56
2023-01-13T11:22:23.510Z,100808.84
2023-01-13T11:25:35.346Z,100797.03
2023-01-13T11:29:00.571Z,100798.09
2023-01-13T11:32:35.597Z,100785.69
2023-01-13T11:36:11.141Z,100793.75
2023-01-13T11:39:26.429Z,100803.34
2023-01-13T11:43:04.953Z,100797.84
2023-01-13T11:46:09.888Z,100789.87
2023-01-13T11:49:23.895Z,100774.22
2023-01-13T11:52:45.048Z,100778.63
2023-01-13T11:56:04.918Z,100769.88
2023-01-13T11:59:25.687Z,100764.53
2023-01-13T12:02:27.419Z,100770.97
2023-01-13T12:05:46.203Z,100768.13
2023-01-13T12:08:59.627Z,100771.53
2023-01-13T12:12:22.874Z,100764.50
2023-01-13T12:15:35.960Z,100758.28
2023-01-13T12:19:07.521Z,100749.28
2023-01-13T12:22:31.915Z,100747.69
2023-01-13T12:25:41.966Z,100753.44
2023-01-13T12:28:50.155Z,100752.34
2023-01-13T12:31:52.621Z,100747.91
2023-01-13T12:35:18.809Z,100749.69
2023-01-13T12:38:34.432Z,100747.81
2023-01-13T12:42:29.902Z,100745.19
2023-01-13T12:45:33.890Z,100742.75
2023-01-13T12:48:57.061Z,100733.09
2023-01-13T12:52:13.754Z,100733.13
2023-01-13T12:55:26.903Z,100728.44
2023-01-13T12:58:28.996Z,100723.28
2023-01-13T13:01:37.708Z,100712.19
2023-01-13T13:04:42.534Z,100701.56
2023-01-13T13:07:53.524Z,100698.59
2023-01-13T13:11:01.684Z,100694.72
2023-01-13T13:14:07.422Z,100696.12
2023-01-13T13:17:25.395Z,100704.53
2023-01-13T13:20:46.096Z,100695.81
2023-01-13T13:24:04.071Z,100688.63
2023-01-13T13:27:32.201Z,100694.63
2023-01-13T13:30:36.988Z,100692.00
2023-01-13T13:33:56.065Z,100684.59
2023-01-13T13:37:16.707Z,100686.12
2023-01-13T13:40:36.980Z,100690.78
2023-01-13T13:44:04.558Z,100703.47
2023-01-13T13:47:07.468Z,100702.66
2023-01-13T13:50:15.384Z,100705.28
2023-01-13T13:53:19.802Z,100701.03
2023-01-13T13:56:27.917Z,100697.78
2023-01-13T13:59:30.936Z,100700.38
2023-01-13T14:02:37.503Z,100710.19
2023-01-13T14:05:39.276Z,100707.41
2023-01-13T14:08:46.612Z,100714.06
2023-01-13T14:11:59.290Z,100715.06
2023-01-13T14:15:01.324Z,100721.59
2023-01-13T14:18:06.057Z,100718.66
2023-01-13T14:21:22.312Z,100719.63
2023-01-13T14:24:25.134Z,100728.72
2023-01-13T14:27:28.719Z,100719.75
2023-01-13T14:30:32.172Z,100736.31
2023-01-13T14:33:46.953Z,100726.13
2023-01-13T14:36:51.195Z,100727.66
2023-01-13T14:39:52.917Z,100728.87
2023-01-13T14:43:02.398Z,100736.94
2023-01-13T14:46:04.285Z,100740.47
2023-01-13T14:49:16.344Z,100737.75
2023-01-13T14:52:21.898Z,100735.06
2023-01-13T14:55:34.417Z,100721.22
2023-01-13T14:58:36.137Z,100728.66
2023-01-13T15:01:41.827Z,100731.44
2023-01-13T15:04:43.537Z,100743.13
2023-01-13T15:07:51.313Z,100738.59
2023-01-13T15:11:01.825Z,100741.87
2023-01-13T15:14:10.741Z,100738.09
2023-01-13T15:17:17.508Z,100730.44
2023-01-13T15:20:21.757Z,100734.59
2023-01-13T15:23:23.661Z,100733.91
2023-01-13T15:26:28.309Z,100733.09
2023-01-13T15:29:30.147Z,100723.50
2023-01-13T15:32:31.854Z,100730.28
2023-01-13T15:35:33.802Z,100730.16
2023-01-13T15:38:35.473Z,100736.91
2023-01-13T15:41:55.772Z,100733.97
2023-01-13T15:45:17.076Z,100723.59
2023-01-13T15:48:21.463Z,100724.06
2023-01-13T15:51:23.245Z,100726.94
2023-01-13T15:54:25.043Z,100725.50
2023-01-13T15:57:34.193Z,100721.19
2023-01-13T16:00:35.978Z,100719.09
2023-01-13T16:03:37.701Z,100717.63
2023-01-13T16:06:39.459Z,100719.28
2023-01-13T16:09:41.142Z,100722.28
2023-01-13T16:12:42.916Z,100730.66
2023-01-13T16:15:49.782Z,100724.44
2023-01-13T16:18:52.822Z,100724.22
2023-01-13T16:21:55.254Z,100731.28
2023-01-13T16:24:57.092Z,100736.69
2023-01-13T16:27:58.833Z,100743.06
2023-01-13T16:31:00.544Z,100744.03
2023-01-13T16:34:04.052Z,100728.69
2023-01-13T16:37:19.078Z,100734.94
2023-01-13T16:40:23.919Z,100736.03
2023-01-13T16:43:25.735Z,100728.34
2023-01-13T16:46:29.934Z,100734.59
2023-01-13T16:49:31.761Z,100740.66
2023-01-13T16:52:33.447Z,100740.38
2023-01-13T16:55:36.907Z,100725.44
2023-01-13T16:58:38.695Z,100724.25
2023-01-13T17:01:42.646Z,100720.50
2023-01-13T17:04:44.852Z,100727.44
2023-01-13T17:07:47.974Z,100730.12
2023-01-13T17:10:50.849Z,100729.84
2023-01-13T17:13:52.574Z,100728.34
2023-01-13T17:16:58.474Z,100720.06
2023-01-13T17:20:00.296Z,100725.28
2023-01-13T17:23:02.100Z,100721.09
2023-01-13T17:26:05.241Z,100730.03
2023-01-13T17:29:11.770Z,100733.50
2023-01-13T17:32:18.818Z,100736.47
2023-01-13T17:35:24.841Z,100738.22
2023-01-13T17:38:29.397Z,100746.81
2023-01-13T17:41:31.607Z,100748.59
2023-01-13T17:44:33.381Z,100749.28
2023-01-13T17:47:35.229Z,100745.31
2023-01-13T17:50:36.912Z,100743.62
2023-01-13T17:53:42.074Z,100743.44
2023-01-13T17:56:44.108Z,100738.19
2023-01-13T17:59:48.262Z,100744.34
2023-01-13T18:02:50.223Z,100729.84
2023-01-13T18:05:51.946Z,100726.16
2023-01-13T18:08:54.514Z,100738.75
2023-01-13T18:11:56.652Z,100729.44
2023-01-13T18:14:58.517Z,100733.00
2023-01-13T18:18:00.968Z,100724.87
2023-01-13T18:21:22.942Z,100731.91
2023-01-13T18:24:43.574Z,100734.91
2023-01-13T18:27:45.950Z,100736.00
2023-01-13T18:30:53.747Z,100738.97
2023-01-13T18:33:56.346Z,100734.12
2023-01-13T18:37:00.681Z,100732.84
2023-01-13T18:40:03.736Z,100723.75
2023-01-13T18:43:05.720Z,100730.91
2023-01-13T18:46:08.697Z,100732.56
2023-01-13T18:49:10.945Z,100725.19
2023-01-13T18:52:13.418Z,100728.53
2023-01-13T18:55:15.439Z,100718.28
2023-01-13T18:58:17.887Z,100723.88
2023-01-13T19:01:22.715Z,100716.53
2023-01-13T19:04:24.978Z,100726.50
2023-01-13T19:07:29.431Z,100739.06
2023-01-13T19:10:32.919Z,100738.47
2023-01-13T19:13:35.867Z,100742.66
2023-01-13T19:16:37.780Z,100741.19
2023-01-13T19:19:44.142Z,100746.84
2023-01-13T19:22:53.813Z,100748.13
2023-01-13T19:25:59.943Z,100752.19
2023-01-13T19:29:02.715Z,100762.63
2023-01-13T19:32:04.652Z,100765.16
2023-01-13T19:35:08.956Z,100771.09
2023-01-13T19:38:11.322Z,100774.50
2023-01-13T19:41:33.525Z,100778.25
2023-01-13T19:44:53.983Z,100781.22
2023-01-13T19:47:57.517Z,100781.59
2023-01-13T19:51:03.161Z,100787.88
2023-01-13T19:54:05.327Z,100787.97
2023-01-13T19:57:07.477Z,100787.88
2023-01-13T20:00:11.924Z,100790.34
2023-01-13T20:03:20.925Z,100788.75
2023-01-13T20:06:23.426Z,100793.06
2023-01-13T20:09:25.898Z,100796.50
2023-01-13T20:12:28.968Z,100791.72
2023-01-13T20:15:31.884Z,100793.09
2023-01-13T20:18:36.764Z,100803.16
2023-01-13T20:21:39.953Z,100799.66
2023-01-13T20:24:44.138Z,100799.06
2023-01-13T20:27:48.441Z,100797.09
2023-01-13T20:30:51.081Z,100793.72
2023-01-13T20:33:53.417Z,100797.53
2023-01-13T20:36:55.757Z,100804.94
2023-01-13T20:40:02.487Z,100799.34
2023-01-13T20:43:05.458Z,100810.28
2023-01-13T20:46:07.309Z,100810.13
2023-01-13T20:49:11.561Z,100811.91
2023-01-13T20:52:14.692Z,100819.66
2023-01-13T20:55:16.643Z,100814.97
2023-01-13T20:58:18.899Z,100811.00
2023-01-13T21:01:21.305Z,100817.94
2023-01-13T21:04:23.729Z,100820.03
2023-01-13T21:07:25.887Z,100814.09
2023-01-13T21:10:27.679Z,100824.78
2023-01-13T21:13:48.178Z,100818.31
2023-01-13T21:16:51.550Z,100827.75
2023-01-13T21:19:53.422Z,100830.88
2023-01-13T21:22:55.127Z,100834.41
2023-01-13T21:25:56.817Z,100839.66
2023-01-13T21:29:00.071Z,100843.03
2023-01-13T21:32:01.821Z,100843.66
2023-01-13T21:35:03.709Z,100844.94
2023-01-13T21:38:05.537Z,100850.78
2023-01-13T21:41:09.021Z,100851.78
2023-01-13T21:44:38.483Z,100852.50
2023-01-13T21:47:49.031Z,100845.12
2023-01-13T21:50:50.889Z,100841.69
2023-01-13T21:53:53.547Z,100842.47
2023-01-13T21:56:55.255Z,100847.91
2023-01-13T21:59:56.996Z,100836.50
2023-01-13T22:03:00.125Z,100825.75
2023-01-13T22:06:01.924Z,100820.16
2023-01-13T22:09:04.029Z,100823.09
2023-01-13T22:12:05.894Z,100816.75
2023-01-13T22:15:08.651Z,100816.06
2023-01-13T22:18:10.327Z,100822.88
2023-01-13T22:21:12.046Z,100823.00
2023-01-13T22:24:13.917Z,100824.28
2023-01-13T22:27:20.987Z,100822.63
2023-01-13T22:30:22.786Z,100829.53
2023-01-13T22:33:25.531Z,100834.81
2023-01-13T22:36:27.250Z,100839.31
2023-01-13T22:39:28.999Z,100831.38
2023-01-13T22:42:30.660Z,100833.94
2023-01-13T22:45:32.419Z,100827.25
2023-01-13T22:48:35.063Z,100818.62
2023-01-13T22:51:36.867Z,100832.63
2023-01-13T22:54:38.514Z,100827.00
2023-01-13T22:57:47.692Z,100820.31
2023-01-13T23:00:49.824Z,100818.38
2023-01-13T23:03:51.775Z,100817.38
2023-01-13T23:06:53.540Z,100823.50
2023-01-13T23:09:55.278Z,100816.03
2023-01-13T23:12:57.002Z,100809.94
2023-01-13T23:16:03.589Z,100802.44
2023-01-13T23:19:07.104Z,100798.72
2023-01-13T23:22:08.888Z,100798.56
2023-01-13T23:25:11.241Z,100800.03
2023-01-13T23:28:12.998Z,100796.13
2023-01-13T23:31:17.990Z,100788.00
2023-01-13T23:34:19.671Z,100793.94
2023-01-13T23:37:21.385Z,100784.66
2023-01-13T23:40:23.099Z,100844.81
2023-01-13T23:43:28.926Z,100862.50
2023-01-13T23:46:33.075Z,100868.63
2023-01-13T23:49:34.923Z,100887.56
2023-01-13T23:52:36.696Z,100856.19
2023-01-13T23:55:38.388Z,100837.75
2023-01-13T23:58:41.436Z,100850.75
